Constantine, Michigan
Current Conditions -  °F | °C
As of 5:14 PM on Friday 24 Oct 2014 (Local Time) from KHAI Reporting Station
Broken Clouds Broken Clouds  
Wind Chill: 63°   Ceiling: 3600
Heat Index: 63°   Visibility: 10mi
Dew Point: 49°   Wind: 5mph
Humidity: 59%   Direction: 260°W
Pressure: 29.98"   Gusts: NA
Location:  41.84°N, 85.67°W
Report Text: KHAI 242114Z AUTO 26004KT 10SM BKN036 17/09 A2998 RMK AO2 T01730093
Loading
Personal Weather Stations






























Interactive Weather Map
Tropical Storm Tracking
New forecast layout! Learn more

10-Day Weather Forecast

Advertisements
Track Severe Weather on mobile